Time;durP1;ratioP1;P1;durP2;ratioP2;P2;SDS_P1;SDS_P2;PMS_P1;PMS_P2;Temp;Humidity;BMP_temperature;BMP_pressure;BME280_temperature;BME280_humidity;BME280_pressure;Samples;Min_cycle;Max_cycle;Signal;HPM_P1;HPM_P2
2023/04/01 00:01:00;;;;;;;3.67;1.20;;;;;;;11.08;68.47;99129.00;4136582;28;20042;-63
2023/04/01 00:03:03;;;;;;;4.55;1.10;;;;;;;11.04;67.61;99126.41;4138516;28;20440;-63
2023/04/01 00:05:07;;;;;;;3.88;1.10;;;;;;;11.01;68.58;99124.72;4133128;28;20037;-63
2023/04/01 00:07:12;;;;;;;10.05;4.13;;;;;;;11.03;68.39;99122.97;4129013;28;21737;-63
2023/04/01 00:09:14;;;;;;;3.03;1.23;;;;;;;11.06;67.64;99120.34;4126581;28;20042;-63
2023/04/01 00:11:19;;;;;;;4.38;0.85;;;;;;;10.98;68.53;99117.81;4146707;28;20060;-63
2023/04/01 00:13:22;;;;;;;4.70;1.15;;;;;;;11.03;68.31;99117.75;4138958;28;20037;-63
2023/04/01 00:15:25;;;;;;;2.90;1.20;;;;;;;11.03;68.05;99115.16;4141107;28;20030;-63
2023/04/01 00:17:29;;;;;;;6.47;1.20;;;;;;;11.06;68.58;99114.28;4128449;28;20157;-63
2023/04/01 00:19:32;;;;;;;5.70;1.38;;;;;;;11.11;67.63;99118.56;4126705;28;20117;-63
2023/04/01 00:21:36;;;;;;;8.10;1.40;;;;;;;11.01;68.05;99111.72;4129251;28;20582;-63
2023/04/01 00:23:40;;;;;;;3.70;1.17;;;;;;;10.95;67.31;99122.16;4121704;28;21246;-63
2023/04/01 00:25:45;;;;;;;4.18;0.90;;;;;;;10.95;66.88;99116.97;4126958;28;20050;-63
2023/04/01 00:27:47;;;;;;;3.83;0.90;;;;;;;10.97;67.16;99115.22;4124055;28;20042;-63
2023/04/01 00:29:50;;;;;;;5.45;1.15;;;;;;;10.97;67.46;99112.63;4140947;28;20508;-63
2023/04/01 00:31:53;;;;;;;3.15;1.10;;;;;;;11.02;67.40;99116.03;4127026;28;20034;-63
2023/04/01 00:33:56;;;;;;;2.75;0.95;;;;;;;11.02;67.02;99118.63;4124645;28;20045;-63
2023/04/01 00:36:06;;;;;;;4.78;1.33;;;;;;;11.01;66.52;99106.53;4135123;28;20045;-63
2023/04/01 00:38:11;;;;;;;5.00;1.55;;;;;;;11.02;66.73;99107.38;4127314;28;20058;-63
2023/04/01 00:40:25;;;;;;;6.38;1.33;;;;;;;11.02;66.59;99116.03;4129710;28;20044;-63
2023/04/01 00:42:28;;;;;;;4.00;1.38;;;;;;;11.03;66.26;99112.56;4133409;28;20050;-63
2023/04/01 00:44:34;;;;;;;6.55;1.10;;;;;;;11.08;66.02;99107.31;4151243;28;20045;-63
2023/04/01 00:46:37;;;;;;;3.80;1.08;;;;;;;11.05;65.73;99105.59;4129088;28;20085;-63
2023/04/01 00:48:44;;;;;;;4.82;1.40;;;;;;;11.03;65.94;99107.34;4130171;28;20042;-63
2023/04/01 00:50:52;;;;;;;7.13;1.65;;;;;;;10.92;64.97;99101.38;4133282;28;20036;-62
2023/04/01 00:52:55;;;;;;;6.20;1.63;;;;;;;10.90;65.68;99105.75;4135893;28;20034;-63
2023/04/01 00:55:00;;;;;;;6.25;1.60;;;;;;;10.88;65.31;99105.78;4124068;28;20058;-63
2023/04/01 00:57:09;;;;;;;6.03;1.10;;;;;;;11.02;64.78;99103.03;4135174;28;20120;-63
2023/04/01 00:59:15;;;;;;;5.38;1.30;;;;;;;11.09;64.26;99101.25;4132272;28;20053;-63
2023/04/01 01:01:17;;;;;;;6.32;1.40;;;;;;;11.00;63.94;99104.78;4132866;28;20488;-63
2023/04/01 01:03:22;;;;;;;;;;;;;;;10.82;64.08;99105.84;4131653;28;20044;-63
2023/04/01 01:05:36;;;;;;;3.25;1.20;;;;;;;10.82;64.78;99098.88;4154423;28;19920;-63
2023/04/01 01:08:04;;;;;;;5.40;1.40;;;;;;;10.85;65.19;99107.53;4138847;28;20030;-63
2023/04/01 01:10:17;;;;;;;5.43;1.33;;;;;;;10.83;64.81;99108.41;4144132;28;20037;-63
2023/04/01 01:12:26;;;;;;;4.00;1.02;;;;;;;10.80;64.68;99103.22;4132409;28;20390;-63
2023/04/01 01:14:40;;;;;;;3.55;1.13;;;;;;;10.87;63.97;99104.03;4149837;28;20388;-63
2023/04/01 01:16:46;;;;;;;8.73;1.50;;;;;;;10.78;63.79;99094.59;4139387;28;20065;-62
2023/04/01 01:18:56;;;;;;;4.18;0.90;;;;;;;10.80;64.10;99105.81;4134651;28;20121;-63
2023/04/01 01:21:34;;;;;;;4.68;1.27;;;;;;;10.66;63.52;99097.31;4141441;28;20046;-62
2023/04/01 01:24:04;;;;;;;7.22;1.55;;;;;;;10.74;64.36;99092.88;4162777;28;20120;-63
2023/04/01 01:26:28;;;;;;;4.70;1.10;;;;;;;10.78;63.47;99096.31;4151264;28;20495;-63
2023/04/01 01:28:46;;;;;;;4.28;1.13;;;;;;;10.80;64.41;99090.22;4132041;28;20412;-63
2023/04/01 01:30:59;;;;;;;5.53;1.50;;;;;;;10.90;64.01;99082.34;4130702;28;20049;-63
2023/04/01 01:33:14;;;;;;;5.03;1.60;;;;;;;10.87;62.79;99093.63;4130371;28;20475;-63
2023/04/01 01:35:23;;;;;;;2.35;1.08;;;;;;;10.69;64.13;99094.66;4130177;28;20141;-63
2023/04/01 01:37:28;;;;;;;3.67;1.20;;;;;;;10.79;63.69;99091.13;4134371;28;20081;-63
2023/04/01 01:39:35;;;;;;;4.00;1.45;;;;;;;10.70;63.95;99083.38;4142581;28;20044;-62
2023/04/01 01:41:40;;;;;;;5.88;1.73;;;;;;;10.79;62.67;99085.91;4115289;28;20042;-63
2023/04/01 01:43:48;;;;;;;3.17;1.17;;;;;;;10.87;63.64;99079.78;4130045;28;20117;-63
2023/04/01 01:45:55;;;;;;;5.25;1.60;;;;;;;10.87;63.79;99077.19;4131857;28;21591;-63
2023/04/01 01:48:00;;;;;;;5.13;1.67;;;;;;;10.87;63.74;99085.00;4124611;28;20607;-63
2023/04/01 01:50:06;;;;;;;9.63;1.40;;;;;;;10.83;62.71;99072.03;4134224;28;20462;-63
2023/04/01 01:52:10;;;;;;;4.35;1.20;;;;;;;10.78;62.76;99078.97;4144283;28;20068;-63
2023/04/01 01:54:13;;;;;;;8.20;1.35;;;;;;;10.85;63.05;99079.81;4132469;28;20045;-63
2023/04/01 01:56:21;;;;;;;4.03;1.40;;;;;;;10.77;63.41;99076.41;4135686;28;20061;-63
2023/04/01 01:58:29;;;;;;;3.63;1.10;;;;;;;10.79;62.84;99070.31;4138601;28;20041;-63
2023/04/01 02:00:34;;;;;;;8.20;1.50;;;;;;;10.77;63.33;99082.44;4144020;28;20042;-63
2023/04/01 02:02:37;;;;;;;9.77;1.77;;;;;;;10.82;63.06;99078.09;4126682;28;20074;-63
2023/04/01 02:04:43;;;;;;;5.07;1.38;;;;;;;10.98;63.31;99090.94;4128926;28;20121;-62
2023/04/01 02:06:52;;;;;;;4.50;0.93;;;;;;;10.83;62.78;99073.75;4141108;28;20065;-63
2023/04/01 02:08:59;;;;;;;5.30;1.60;;;;;;;10.83;62.89;99079.81;4127408;28;20042;-63
2023/04/01 02:11:05;;;;;;;3.28;1.10;;;;;;;10.86;63.01;99085.84;4128322;28;20049;-63
2023/04/01 02:13:21;;;;;;;5.85;1.10;;;;;;;10.77;63.59;99087.66;4139933;28;20124;-63
2023/04/01 02:15:30;;;;;;;7.10;1.77;;;;;;;10.72;63.70;99075.56;4128525;28;20049;-63
2023/04/01 02:17:36;;;;;;;4.65;1.10;;;;;;;10.78;63.41;99086.78;4126526;28;20122;-63
2023/04/01 02:19:45;;;;;;;6.53;1.40;;;;;;;10.78;62.66;99084.19;4137995;28;20088;-63
2023/04/01 02:21:51;;;;;;;5.20;1.25;;;;;;;10.88;62.45;99078.88;4131921;28;20045;-64
2023/04/01 02:23:58;;;;;;;5.47;1.85;;;;;;;10.82;63.34;99078.09;4112551;28;20039;-63
2023/04/01 02:26:02;;;;;;;3.75;1.30;;;;;;;10.77;63.23;99077.25;4134607;28;20587;-62
2023/04/01 02:28:09;;;;;;;5.20;1.10;;;;;;;10.73;63.30;99085.97;4141333;28;20034;-63
2023/04/01 02:30:13;;;;;;;3.05;1.00;;;;;;;10.82;63.23;99075.47;4126740;28;20130;-63
2023/04/01 02:32:18;;;;;;;5.90;1.77;;;;;;;10.88;63.40;99073.69;4111475;28;20464;-63
2023/04/01 02:34:22;;;;;;;;;;;;;;;10.82;63.13;99079.84;4129741;28;20050;-63
2023/04/01 02:36:25;;;;;;;6.97;1.60;;;;;;;10.95;63.47;99080.56;4113491;28;19929;-63
2023/04/01 02:38:28;;;;;;;4.97;1.52;;;;;;;10.94;63.56;99084.91;4128760;28;20105;-63
2023/04/01 02:40:42;;;;;;;5.78;1.00;;;;;;;10.92;62.61;99080.59;4145933;28;20037;-63
2023/04/01 02:42:45;;;;;;;4.05;1.20;;;;;;;10.75;63.18;99079.00;4128694;28;20125;-63
2023/04/01 02:44:48;;;;;;;3.75;1.20;;;;;;;10.87;64.35;99083.25;4134443;28;20066;-65
2023/04/01 02:46:52;;;;;;;4.75;1.20;;;;;;;10.93;63.36;99080.56;4130134;28;20042;-64
2023/04/01 02:48:55;;;;;;;7.10;1.38;;;;;;;10.83;63.60;99095.41;4135207;28;20041;-63
2023/04/01 02:50:58;;;;;;;6.88;1.38;;;;;;;10.65;64.49;99085.16;4143353;28;20467;-63
2023/04/01 02:53:02;;;;;;;6.60;1.60;;;;;;;10.77;64.31;99082.44;4130849;28;20050;-63
2023/04/01 02:55:07;;;;;;;3.08;0.98;;;;;;;10.76;64.37;99085.06;4109883;28;20042;-62
2023/04/01 02:57:11;;;;;;;4.07;1.10;;;;;;;10.67;64.14;99083.41;4132550;28;20034;-63
2023/04/01 02:59:14;;;;;;;5.13;1.00;;;;;;;10.64;64.89;99081.72;4129932;28;20619;-63
2023/04/01 03:01:17;;;;;;;5.88;1.60;;;;;;;10.69;65.02;99079.06;4129944;28;20404;-63
2023/04/01 03:03:20;;;;;;;3.40;0.93;;;;;;;10.65;65.04;99078.22;4131468;28;20408;-63
2023/04/01 03:05:23;;;;;;;5.95;1.40;;;;;;;10.72;65.45;99084.25;4129470;28;20129;-63
2023/04/01 03:07:26;;;;;;;6.00;1.95;;;;;;;10.79;64.43;99078.13;4130218;28;20040;-63
2023/04/01 03:09:29;;;;;;;7.75;0.93;;;;;;;10.81;65.18;99083.31;4127019;28;20085;-63
2023/04/01 03:11:32;;;;;;;5.10;1.25;;;;;;;10.76;64.82;99096.34;4129341;28;20048;-63
2023/04/01 03:13:37;;;;;;;4.70;1.23;;;;;;;10.75;64.22;99092.00;4129317;28;20035;-62
2023/04/01 03:15:39;;;;;;;3.63;0.98;;;;;;;10.53;65.80;99095.66;4131110;28;20070;-62
2023/04/01 03:17:43;;;;;;;7.45;1.30;;;;;;;10.47;65.93;99086.19;4115450;28;20488;-63
2023/04/01 03:19:48;;;;;;;4.57;1.40;;;;;;;10.47;66.26;99089.63;4122643;28;20089;-63
2023/04/01 03:21:50;;;;;;;10.98;1.40;;;;;;;10.50;65.37;99093.06;4138170;28;20038;-62
2023/04/01 03:23:53;;;;;;;4.30;1.00;;;;;;;10.52;65.40;99086.16;4148763;28;20042;-63
2023/04/01 03:25:56;;;;;;;4.43;1.17;;;;;;;10.52;65.13;99087.00;4144799;28;20125;-62
2023/04/01 03:27:59;;;;;;;4.35;1.00;;;;;;;10.52;66.05;99089.59;4132389;28;20096;-63
2023/04/01 03:30:05;;;;;;;4.97;1.40;;;;;;;10.64;65.92;99086.91;4132631;28;20062;-63
2023/04/01 03:32:14;;;;;;;3.03;1.33;;;;;;;10.56;65.52;99088.69;4132182;28;20037;-63
2023/04/01 03:34:17;;;;;;;3.28;0.82;;;;;;;10.65;65.94;99082.56;4132991;28;20411;-63
2023/04/01 03:36:21;;;;;;;3.78;1.25;;;;;;;10.59;66.44;99093.03;4133754;28;20045;-63
2023/04/01 03:38:24;;;;;;;6.60;1.20;;;;;;;10.59;65.44;99091.28;4132230;28;20031;-63
2023/04/01 03:40:27;;;;;;;5.90;1.02;;;;;;;10.50;66.21;99087.88;4133822;28;20045;-63
2023/04/01 03:42:32;;;;;;;4.65;1.30;;;;;;;10.43;66.16;99087.94;4142356;28;20053;-63
2023/04/01 03:44:35;;;;;;;3.75;1.17;;;;;;;10.41;66.23;99087.09;4153997;28;20062;-63
2023/04/01 03:46:39;;;;;;;3.60;1.00;;;;;;;10.51;66.61;99082.66;4145754;28;20045;-63
2023/04/01 03:48:42;;;;;;;5.53;1.08;;;;;;;10.43;66.90;99082.72;4146366;28;20038;-63
2023/04/01 03:50:46;;;;;;;4.07;1.02;;;;;;;10.60;66.27;99085.22;4127275;28;20108;-62
2023/04/01 03:52:49;;;;;;;5.40;1.20;;;;;;;10.44;65.80;99083.59;4136859;28;20120;-63
2023/04/01 03:54:52;;;;;;;4.03;0.98;;;;;;;10.35;66.83;99087.13;4136856;28;20053;-63
2023/04/01 03:56:57;;;;;;;5.18;1.15;;;;;;;10.40;66.99;99084.50;4134738;28;20044;-63
2023/04/01 03:59:03;;;;;;;5.25;1.55;;;;;;;10.48;66.63;99073.19;4130404;28;20034;-63
2023/04/01 04:01:14;;;;;;;3.72;1.08;;;;;;;10.46;66.27;99077.50;4131890;28;20044;-63
2023/04/01 04:03:19;;;;;;;3.13;1.33;;;;;;;10.52;66.29;99080.94;4132082;28;20030;-63
2023/04/01 04:05:22;;;;;;;;;;;;;;;10.40;66.49;99076.72;4139207;28;20046;-63
2023/04/01 04:07:25;;;;;;;4.10;0.93;;;;;;;10.49;66.17;99068.84;4120641;28;19996;-63
2023/04/01 04:09:38;;;;;;;2.40;1.13;;;;;;;10.36;66.56;99075.84;4143937;28;20096;-63
2023/04/01 04:11:41;;;;;;;2.55;0.82;;;;;;;10.43;65.89;99072.34;4146045;28;20101;-63
2023/04/01 04:13:44;;;;;;;4.30;1.30;;;;;;;10.42;66.03;99068.00;4130549;28;20031;-63
2023/04/01 04:15:47;;;;;;;3.00;1.02;;;;;;;10.31;66.05;99072.41;4133719;28;20038;-62
2023/04/01 04:17:50;;;;;;;3.35;1.10;;;;;;;10.28;66.70;99067.25;4135044;28;20080;-62
2023/04/01 04:19:54;;;;;;;4.20;0.98;;;;;;;10.38;65.85;99068.94;4137412;28;20113;-63
2023/04/01 04:22:00;;;;;;;3.90;1.00;;;;;;;10.47;65.43;99079.25;4139106;28;20146;-63
2023/04/01 04:24:04;;;;;;;4.38;0.98;;;;;;;10.55;65.71;99068.78;4128789;28;20138;-63
2023/04/01 04:26:28;;;;;;;10.00;1.65;;;;;;;10.53;65.30;99073.13;4131524;28;20448;-63
2023/04/01 04:28:35;;;;;;;4.78;0.80;;;;;;;10.50;65.23;99067.97;4143792;28;20037;-63
2023/04/01 04:30:38;;;;;;;4.25;0.98;;;;;;;10.47;65.46;99068.00;4115826;28;20134;-63
2023/04/01 04:32:41;;;;;;;6.25;1.52;;;;;;;10.52;65.15;99060.16;4138020;28;20069;-63
2023/04/01 04:34:46;;;;;;;4.03;1.08;;;;;;;10.50;64.63;99064.50;4136407;28;20050;-63
2023/04/01 04:36:50;;;;;;;5.10;0.90;;;;;;;10.65;64.41;99066.97;4129347;28;20049;-63
2023/04/01 04:38:54;;;;;;;7.78;1.73;;;;;;;10.73;63.86;99062.59;4131874;28;20105;-63
2023/04/01 04:40:57;;;;;;;3.67;1.17;;;;;;;10.61;64.24;99065.28;4129761;28;20077;-63
2023/04/01 04:43:00;;;;;;;3.88;1.10;;;;;;;10.65;63.97;99066.97;4132570;28;20051;-62
2023/04/01 04:45:03;;;;;;;4.40;1.50;;;;;;;10.72;64.17;99063.44;4117087;28;20504;-62
2023/04/01 04:47:06;;;;;;;8.43;1.25;;;;;;;10.76;64.33;99065.16;4143398;28;20038;-63
2023/04/01 04:49:09;;;;;;;4.32;1.08;;;;;;;10.87;64.64;99072.00;4154178;28;20038;-63
2023/04/01 04:51:14;;;;;;;4.75;1.42;;;;;;;10.94;64.89;99073.66;4141314;28;20077;-63
2023/04/01 04:53:19;;;;;;;3.05;1.17;;;;;;;10.98;64.40;99073.59;4144881;28;20045;-63
2023/04/01 04:55:23;;;;;;;3.55;1.00;;;;;;;10.93;65.24;99077.13;4131156;28;20534;-63
2023/04/01 04:57:41;;;;;;;5.32;1.30;;;;;;;10.82;65.92;99074.63;4128962;28;20042;-63
2023/04/01 04:59:44;;;;;;;8.00;1.65;;;;;;;10.85;65.37;99073.72;4132912;28;20034;-63
2023/04/01 05:01:51;;;;;;;4.63;1.02;;;;;;;10.83;65.78;99074.63;4127241;28;20046;-63
2023/04/01 05:03:54;;;;;;;5.70;1.45;;;;;;;10.65;65.93;99074.78;4119778;28;20066;-63
2023/04/01 05:05:57;;;;;;;7.47;1.75;;;;;;;10.61;66.65;99079.13;4144214;28;20045;-63
2023/04/01 05:08:00;;;;;;;4.22;1.08;;;;;;;10.59;66.69;99077.44;4128001;28;20038;-63
2023/04/01 05:10:05;;;;;;;6.20;1.65;;;;;;;10.61;67.52;99086.91;4131559;28;20057;-63
2023/04/01 05:12:08;;;;;;;4.03;1.27;;;;;;;10.58;67.48;99086.09;4130419;28;20128;-63
2023/04/01 05:14:33;;;;;;;4.68;1.60;;;;;;;10.55;66.75;99088.72;4136730;28;20049;-63
2023/04/01 05:16:43;;;;;;;6.75;1.30;;;;;;;10.62;67.43;99082.59;4148956;28;20041;-63
2023/04/01 05:18:46;;;;;;;6.20;1.20;;;;;;;10.57;67.35;99076.56;4128477;28;20128;-63
2023/04/01 05:21:00;;;;;;;7.43;1.80;;;;;;;10.43;67.72;99084.47;4125263;28;20133;-88
2023/04/01 05:23:03;;;;;;;5.53;1.38;;;;;;;10.49;67.66;99076.63;4135388;28;20096;-67
2023/04/01 05:25:08;;;;;;;4.88;1.20;;;;;;;10.63;67.25;99084.31;4129753;28;20126;-67
2023/04/01 05:27:11;;;;;;;;;;;;;;;10.56;67.91;99078.31;4146754;28;20050;-67
2023/04/01 05:29:15;;;;;;;4.75;1.50;;;;;;;10.62;67.60;99072.19;4113872;28;19922;-67
2023/04/01 05:31:20;;;;;;;6.78;1.42;;;;;;;10.64;67.46;99071.31;4141583;28;20034;-67
2023/04/01 05:33:24;;;;;;;6.40;1.52;;;;;;;10.64;67.00;99075.63;4112862;28;20081;-67
2023/04/01 05:35:27;;;;;;;6.93;1.20;;;;;;;10.58;67.53;99073.94;4110338;28;20047;-67
2023/04/01 05:37:30;;;;;;;7.15;1.30;;;;;;;10.57;66.91;99069.66;4111968;28;20381;-66
2023/04/01 05:39:36;;;;;;;6.90;1.50;;;;;;;10.53;67.53;99067.94;4128346;28;20035;-67
2023/04/01 05:41:41;;;;;;;6.03;1.63;;;;;;;10.58;67.66;99075.69;4127467;28;20500;-66
2023/04/01 05:43:45;;;;;;;5.00;1.35;;;;;;;10.69;66.58;99060.88;4109616;28;20073;-66
2023/04/01 05:46:08;;;;;;;6.47;1.73;;;;;;;10.54;67.73;99061.00;4097518;28;20523;-67
2023/04/01 05:48:23;;;;;;;5.60;1.55;;;;;;;10.45;67.22;99065.41;4110607;28;20049;-66
2023/04/01 05:50:27;;;;;;;5.00;1.42;;;;;;;10.46;66.93;99055.88;4112311;28;20119;-67
2023/04/01 05:52:29;;;;;;;4.65;1.50;;;;;;;10.60;67.06;99058.34;4129540;28;20100;-66
2023/04/01 05:54:33;;;;;;;6.30;1.27;;;;;;;10.45;67.17;99062.81;4126597;28;20049;-67
2023/04/01 05:56:37;;;;;;;;;;;;;;;10.33;67.93;99060.25;4112434;28;20046;-66
2023/04/01 05:58:41;;;;;;;4.82;1.20;;;;;;;10.35;67.68;99062.88;4095184;28;20312;-66
2023/04/01 06:00:44;;;;;;;4.43;1.20;;;;;;;10.47;67.26;99058.47;4103984;28;20109;-67
2023/04/01 06:02:52;;;;;;;3.33;1.15;;;;;;;10.37;67.32;99066.34;4128637;28;20050;-66
2023/04/01 06:05:04;;;;;;;3.17;1.58;;;;;;;10.43;67.53;99061.09;4128724;28;20153;-67
2023/04/01 06:07:12;;;;;;;3.00;1.02;;;;;;;10.44;67.75;99060.19;4109839;28;20045;-67
2023/04/01 06:09:17;;;;;;;4.60;1.45;;;;;;;10.35;68.16;99066.31;4111744;28;20117;-67
2023/04/01 06:11:37;;;;;;;6.40;1.38;;;;;;;10.43;67.80;99061.09;4110916;28;20039;-67
2023/04/01 06:14:05;;;;;;;3.88;1.10;;;;;;;10.30;68.00;99057.69;4111983;28;20628;-67
2023/04/01 06:16:18;;;;;;;3.15;0.93;;;;;;;10.27;67.76;99068.97;4128729;28;20100;-67
2023/04/01 06:18:42;;;;;;;7.35;1.20;;;;;;;10.30;68.11;99058.53;4127339;28;20054;-66
2023/04/01 06:20:57;;;;;;;3.97;1.40;;;;;;;10.28;68.08;99064.66;4094739;28;20098;-66
2023/04/01 06:23:11;;;;;;;1.77;0.95;;;;;;;10.27;68.14;99066.34;4107090;28;20106;-67
2023/04/01 06:25:35;;;;;;;6.20;1.70;;;;;;;10.26;68.25;99058.59;4080425;29;20398;-66
2023/04/01 06:27:52;;;;;;;4.28;0.85;;;;;;;10.25;68.33;99062.94;4109941;28;20039;-66
2023/04/01 06:30:09;;;;;;;4.47;1.10;;;;;;;10.43;67.63;99061.94;4110684;28;20062;-66
2023/04/01 06:32:23;;;;;;;6.72;1.33;;;;;;;10.29;67.59;99061.16;4121695;28;20041;-67
2023/04/01 06:34:40;;;;;;;2.85;0.95;;;;;;;10.32;68.47;99061.13;4126349;28;20046;-66
2023/04/01 06:36:56;;;;;;;2.95;0.90;;;;;;;10.21;67.97;99052.56;4110132;28;20043;-66
2023/04/01 06:39:19;;;;;;;4.25;0.95;;;;;;;10.20;67.66;99054.28;4107193;28;20140;-67
2023/04/01 06:41:58;;;;;;;5.03;1.05;;;;;;;10.35;67.68;99049.88;4091866;28;20052;-66
2023/04/01 06:44:15;;;;;;;2.33;0.70;;;;;;;10.21;68.06;99052.56;4106321;28;20050;-67
2023/04/01 06:46:46;;;;;;;1.67;0.63;;;;;;;10.29;67.57;99053.38;4095559;28;20049;-66
2023/04/01 06:49:33;;;;;;;4.05;1.23;;;;;;;10.30;68.07;99050.75;4097580;28;20039;-67
2023/04/01 06:52:02;;;;;;;4.00;0.88;;;;;;;10.24;67.91;99060.34;4092523;28;20464;-67
2023/04/01 06:54:29;;;;;;;3.92;0.98;;;;;;;10.31;68.27;99062.03;4099079;29;20126;-67
2023/04/01 06:57:01;;;;;;;1.90;0.60;;;;;;;10.33;67.59;99060.25;4096990;28;20039;-66
2023/04/01 06:59:08;;;;;;;2.50;0.70;;;;;;;10.12;67.78;99054.34;4109275;28;20138;-66
2023/04/01 07:01:15;;;;;;;1.88;0.85;;;;;;;10.20;68.09;99058.63;4113276;28;20121;-66
2023/04/01 07:03:29;;;;;;;3.85;0.80;;;;;;;10.33;68.09;99059.41;4094415;29;20086;-66
2023/04/01 07:05:34;;;;;;;3.78;1.48;;;;;;;10.31;68.05;99062.03;4113769;28;20038;-66
2023/04/01 07:07:42;;;;;;;2.33;0.75;;;;;;;10.36;68.38;99065.47;4097865;29;20039;-66
2023/04/01 07:09:52;;;;;;;2.40;0.77;;;;;;;10.43;68.36;99069.75;4129556;28;20444;-66
2023/04/01 07:12:16;;;;;;;2.17;0.60;;;;;;;10.28;68.16;99062.06;4098604;28;20662;-67
2023/04/01 07:14:40;;;;;;;2.15;0.60;;;;;;;10.18;67.63;99062.97;4098144;28;20513;-66
2023/04/01 07:16:47;;;;;;;2.90;1.10;;;;;;;10.03;68.71;99069.13;4111295;28;20548;-66
2023/04/01 07:18:58;;;;;;;2.60;0.80;;;;;;;10.11;69.31;99055.22;4095042;28;20039;-66
2023/04/01 07:21:13;;;;;;;3.45;0.52;;;;;;;10.13;68.73;99063.88;4103718;28;20043;-66
2023/04/01 07:23:23;;;;;;;2.35;0.80;;;;;;;10.19;68.78;99069.88;4113372;28;20039;-67
2023/04/01 07:25:42;;;;;;;3.30;1.13;;;;;;;10.31;69.26;99062.88;4116236;28;20481;-67
2023/04/01 07:28:16;;;;;;;2.60;0.90;;;;;;;10.44;68.78;99057.59;4116234;28;20101;-67
2023/04/01 07:30:25;;;;;;;4.18;1.08;;;;;;;10.58;68.65;99065.31;4116349;28;20035;-67
2023/04/01 07:32:40;;;;;;;2.63;0.80;;;;;;;10.67;68.30;99057.41;4115615;28;20163;-67
2023/04/01 07:34:54;;;;;;;1.60;0.90;;;;;;;10.80;68.53;99058.16;4116639;28;20053;-67
2023/04/01 07:37:03;;;;;;;1.10;0.43;;;;;;;10.85;68.00;99060.72;4115248;28;20592;-67
2023/04/01 07:39:19;;;;;;;1.92;0.60;;;;;;;10.87;68.36;99054.63;4130146;28;20112;-67
2023/04/01 07:41:41;;;;;;;1.75;0.68;;;;;;;10.89;68.56;99062.41;4125523;28;20045;-66
2023/04/01 07:44:00;;;;;;;0.93;0.70;;;;;;;10.96;67.97;99058.88;4121712;28;20129;-67
2023/04/01 07:46:15;;;;;;;2.65;0.80;;;;;;;10.94;67.87;99052.84;4112497;28;20105;-67
2023/04/01 07:48:27;;;;;;;2.22;0.82;;;;;;;10.83;67.60;99065.94;4098350;28;20039;-67
2023/04/01 07:50:35;;;;;;;1.90;1.00;;;;;;;10.92;67.41;99065.88;4113884;28;20034;-67
2023/04/01 07:52:47;;;;;;;1.75;0.60;;;;;;;10.90;68.14;99067.59;4113338;28;20031;-67
2023/04/01 07:55:01;;;;;;;1.85;0.80;;;;;;;10.97;67.95;99068.41;4129168;28;20048;-67
2023/04/01 07:57:12;;;;;;;1.55;0.55;;;;;;;10.82;68.26;99072.03;4099455;28;20046;-67
2023/04/01 07:59:29;;;;;;;2.78;0.70;;;;;;;10.81;68.38;99062.50;4114027;28;20043;-67
2023/04/01 08:01:47;;;;;;;2.10;0.75;;;;;;;10.85;68.40;99076.31;4111544;28;20043;-67
2023/04/01 08:04:19;;;;;;;1.75;0.70;;;;;;;10.87;68.55;99074.59;4112522;28;20050;-67
2023/04/01 08:06:32;;;;;;;2.38;0.70;;;;;;;10.82;68.51;99074.63;4099674;28;20047;-67
2023/04/01 08:08:47;;;;;;;2.00;0.57;;;;;;;10.86;68.60;99070.25;4112055;28;20035;-67
2023/04/01 08:11:29;;;;;;;3.13;0.82;;;;;;;11.03;68.23;99076.16;4097100;28;20044;-79
2023/04/01 08:13:58;;;;;;;2.83;0.70;;;;;;;11.13;68.32;99071.72;4092756;28;20127;-74
2023/04/01 08:16:25;;;;;;;2.72;0.77;;;;;;;10.99;68.90;99077.06;4096083;28;20035;-70
2023/04/01 08:18:40;;;;;;;4.57;1.10;;;;;;;10.94;69.02;99084.91;4114238;28;20046;-71
2023/04/01 08:20:48;;;;;;;2.72;0.90;;;;;;;11.00;68.84;99079.63;4118172;28;20034;-77
2023/04/01 08:22:58;;;;;;;2.95;0.80;;;;;;;10.88;69.19;99084.09;4114086;28;20034;-79
2023/04/01 08:25:07;;;;;;;;;;;;;;;10.75;69.78;99089.41;4111896;28;20062;-72
2023/04/01 08:27:16;;;;;;;3.90;0.98;;;;;;;10.76;69.67;99088.53;4112450;28;20028;-72
2023/04/01 08:29:27;;;;;;;2.65;0.70;;;;;;;10.69;70.42;99089.47;4113351;28;20042;-68
2023/04/01 08:31:35;;;;;;;2.72;0.90;;;;;;;10.86;69.57;99091.91;4113375;28;20034;-69
2023/04/01 08:33:41;;;;;;;1.92;0.70;;;;;;;10.80;69.78;99086.75;4113374;28;20461;-72
2023/04/01 08:35:52;;;;;;;1.42;0.80;;;;;;;10.77;69.87;99085.03;4107975;28;20047;-73
2023/04/01 08:38:02;;;;;;;2.80;1.08;;;;;;;10.78;70.93;99088.53;4107874;28;20031;-73
2023/04/01 08:40:26;;;;;;;1.40;0.70;;;;;;;10.87;70.41;99097.97;4111737;28;20480;-73
2023/04/01 08:42:50;;;;;;;4.45;0.73;;;;;;;10.90;70.45;99093.59;4111871;28;20093;-73
2023/04/01 08:45:11;;;;;;;3.35;0.85;;;;;;;10.90;70.83;99087.56;4098623;28;20116;-73
2023/04/01 08:47:43;;;;;;;1.45;0.68;;;;;;;10.95;71.00;99091.84;4119130;28;20125;-69
2023/04/01 08:50:23;;;;;;;2.72;0.70;;;;;;;10.97;70.70;99097.03;4125807;28;20069;-66
2023/04/01 08:53:04;;;;;;;2.90;0.90;;;;;;;10.90;70.63;99095.34;4093215;28;20119;-66
2023/04/01 08:55:28;;;;;;;3.22;0.70;;;;;;;10.87;70.54;99103.19;4075027;29;20039;-64
2023/04/01 08:57:51;;;;;;;2.95;0.80;;;;;;;10.90;71.06;99103.16;4122651;28;20070;-62
2023/04/01 09:00:30;;;;;;;2.92;0.95;;;;;;;10.87;70.48;99096.25;4122899;28;20077;-62
2023/04/01 09:03:32;;;;;;;2.67;0.80;;;;;;;10.61;71.86;99096.47;4095646;28;20058;-61
2023/04/01 09:05:54;;;;;;;1.50;0.80;;;;;;;10.61;72.30;99096.47;4090099;29;20507;-62
2023/04/01 09:08:09;;;;;;;0.82;0.60;;;;;;;10.86;72.21;99098.84;4112501;28;20511;-65
2023/04/01 09:10:35;;;;;;;2.63;0.90;;;;;;;10.92;71.73;99098.78;4108376;28;20539;-64
2023/04/01 09:13:07;;;;;;;1.63;0.77;;;;;;;10.94;72.20;99099.66;4111928;28;20039;-67
2023/04/01 09:15:31;;;;;;;2.03;0.73;;;;;;;10.90;71.74;99111.81;4112114;28;20516;-70
2023/04/01 09:17:58;;;;;;;4.37;1.20;;;;;;;10.95;72.37;99107.44;4112585;28;20046;-81
2023/04/01 09:20:34;;;;;;;3.58;0.70;;;;;;;10.96;71.80;99110.88;4106713;28;20073;-70
2023/04/01 09:22:59;;;;;;;0.77;0.63;;;;;;;11.01;72.03;99106.53;4121222;28;20050;-65
2023/04/01 09:25:27;;;;;;;1.98;0.88;;;;;;;10.78;72.09;99110.19;4113338;28;20050;-61
2023/04/01 09:27:35;;;;;;;1.33;0.50;;;;;;;10.93;72.42;99113.53;4096442;29;20412;-61
2023/04/01 09:30:11;;;;;;;1.90;1.00;;;;;;;10.96;72.52;99114.34;4097615;29;20486;-67
2023/04/01 09:32:45;;;;;;;2.33;0.73;;;;;;;10.91;73.09;99115.28;4113485;28;20046;-68
2023/04/01 09:35:23;;;;;;;3.40;0.82;;;;;;;11.00;72.98;99121.25;4098428;28;20051;-68
2023/04/01 09:37:36;;;;;;;1.33;0.65;;;;;;;11.04;72.92;99127.28;4112851;28;20066;-67
2023/04/01 09:40:10;;;;;;;1.88;1.10;;;;;;;11.06;72.18;99119.47;4095166;28;20047;-67
2023/04/01 09:42:42;;;;;;;2.40;0.93;;;;;;;11.04;72.60;99111.69;4109709;28;20101;-69
2023/04/01 09:44:59;;;;;;;1.80;0.80;;;;;;;11.06;72.59;99120.34;4110893;28;20424;-67
2023/04/01 09:47:17;;;;;;;1.42;0.50;;;;;;;11.09;73.06;99127.25;4111348;28;20053;-68
2023/04/01 09:49:44;;;;;;;2.08;0.55;;;;;;;11.10;72.39;99115.97;4104323;28;20089;-64
2023/04/01 09:52:00;;;;;;;1.02;0.65;;;;;;;11.16;72.39;99121.97;4119963;28;20126;-63
2023/04/01 09:54:20;;;;;;;3.67;0.60;;;;;;;11.13;72.63;99128.94;4095331;28;20489;-63
2023/04/01 09:56:45;;;;;;;8.55;1.70;;;;;;;11.08;72.22;99121.19;4110367;28;20054;-63
2023/04/01 09:59:10;;;;;;;2.17;0.60;;;;;;;11.08;72.01;99122.91;4093596;28;20045;-65
2023/04/01 10:01:53;;;;;;;1.25;0.52;;;;;;;10.96;72.36;99126.50;4090352;28;20093;-60
2023/04/01 10:04:39;;;;;;;1.50;0.50;;;;;;;10.93;71.67;99129.13;4112243;28;20085;-61
2023/04/01 10:07:11;;;;;;;2.38;0.47;;;;;;;11.05;71.77;99126.41;4108152;28;20034;-62
2023/04/01 10:09:53;;;;;;;2.55;0.52;;;;;;;11.22;71.04;99134.06;4107019;28;20038;-61
2023/04/01 10:12:18;;;;;;;2.50;0.65;;;;;;;11.09;70.03;99130.69;4087534;28;20058;-61
2023/04/01 10:14:37;;;;;;;;;;;;;;;11.07;71.06;99132.47;4111093;28;20149;-63
2023/04/01 10:17:26;;;;;;;3.63;0.68;;;;;;;10.98;71.41;99132.53;4107976;28;19926;-61
2023/04/01 10:20:02;;;;;;;1.85;0.45;;;;;;;11.03;71.42;99129.91;4099948;28;20631;-61
2023/04/01 10:22:26;;;;;;;3.20;0.55;;;;;;;11.26;70.90;99134.91;4108424;28;20049;-61